createdAt,value
2018-02-16T00:00:07.078Z,17.90
2018-02-16T00:02:33.066Z,14.77
2018-02-16T00:04:59.076Z,18.40
2018-02-16T00:07:25.097Z,17.10
2018-02-16T00:09:51.100Z,15.10
2018-02-16T00:12:17.363Z,13.27
2018-02-16T00:14:43.408Z,14.70
2018-02-16T00:17:09.380Z,13.73
2018-02-16T00:19:35.335Z,15.97
2018-02-16T00:22:02.053Z,13.13
2018-02-16T00:24:28.040Z,15.87
2018-02-16T00:26:54.053Z,17.70
2018-02-16T00:29:20.767Z,19.20
2018-02-16T00:31:46.730Z,15.53
2018-02-16T00:34:13.427Z,17.40
2018-02-16T00:36:39.383Z,13.10
2018-02-16T00:39:05.368Z,13.73
2018-02-16T00:41:32.071Z,15.33
2018-02-16T00:43:58.053Z,16.80
2018-02-16T00:46:24.802Z,13.57
2018-02-16T00:48:51.563Z,16.60
2018-02-16T00:51:18.270Z,15.70
2018-02-16T00:53:44.271Z,14.37
2018-02-16T00:56:10.227Z,13.60
2018-02-16T00:58:36.207Z,14.73
2018-02-16T01:01:02.934Z,16.63
2018-02-16T01:03:28.915Z,18.03
2018-02-16T01:05:54.895Z,18.93
2018-02-16T01:08:20.877Z,15.00
2018-02-16T01:10:47.614Z,13.23
2018-02-16T01:13:13.578Z,14.90
2018-02-16T01:15:39.565Z,17.93
2018-02-16T01:18:05.542Z,14.90
2018-02-16T01:20:31.544Z,12.53
2018-02-16T01:22:57.601Z,14.97
2018-02-16T01:25:24.341Z,14.83
2018-02-16T01:27:50.298Z,14.97
2018-02-16T01:30:17.022Z,14.07
2018-02-16T01:32:43.038Z,14.67
2018-02-16T01:35:08.995Z,16.20
2018-02-16T01:37:34.980Z,15.93
2018-02-16T01:40:00.958Z,20.63
2018-02-16T01:42:26.932Z,20.17
2018-02-16T01:44:52.961Z,15.83
2018-02-16T01:47:18.934Z,18.03
2018-02-16T01:49:57.375Z,16.70
2018-02-16T01:52:23.457Z,14.53
2018-02-16T01:54:50.169Z,15.53
2018-02-16T01:57:16.142Z,14.50
2018-02-16T01:59:42.851Z,18.07
2018-02-16T02:02:08.831Z,15.27
2018-02-16T02:04:35.538Z,14.70
2018-02-16T02:07:01.512Z,14.93
2018-02-16T02:09:27.475Z,17.37
2018-02-16T02:11:53.476Z,20.87
2018-02-16T02:14:19.447Z,19.03
2018-02-16T02:16:45.420Z,16.33
2018-02-16T02:19:11.393Z,20.50
2018-02-16T02:21:38.095Z,16.77
2018-02-16T02:24:04.083Z,18.80
2018-02-16T02:26:30.776Z,16.67
2018-02-16T02:28:56.812Z,23.33
2018-02-16T02:31:22.826Z,19.43
2018-02-16T02:33:48.808Z,21.27
2018-02-16T02:36:14.764Z,17.80
2018-02-16T02:38:40.739Z,19.73
2018-02-16T02:41:06.691Z,18.60
2018-02-16T02:43:32.646Z,18.97
2018-02-16T02:45:58.623Z,19.37
2018-02-16T02:48:25.351Z,17.47
2018-02-16T02:50:51.323Z,16.47
2018-02-16T02:53:17.304Z,12.83
2018-02-16T02:55:43.266Z,17.67
2018-02-16T02:58:09.227Z,19.50
2018-02-16T03:00:35.193Z,17.37
2018-02-16T03:03:01.155Z,16.93
2018-02-16T03:05:27.152Z,14.83
2018-02-16T03:07:53.137Z,18.07
2018-02-16T03:10:19.108Z,13.63
2018-02-16T03:12:45.087Z,16.30
2018-02-16T03:15:11.055Z,17.37
2018-02-16T03:17:37.756Z,16.13
2018-02-16T03:20:03.771Z,21.63
2018-02-16T03:22:29.749Z,16.43
2018-02-16T03:24:55.736Z,17.80
2018-02-16T03:27:21.719Z,19.97
2018-02-16T03:29:47.688Z,19.73
2018-02-16T03:32:14.395Z,25.13
2018-02-16T03:34:40.388Z,17.30
2018-02-16T03:37:07.127Z,23.83
2018-02-16T03:39:33.833Z,23.53
2018-02-16T03:41:59.824Z,17.67
2018-02-16T03:44:26.586Z,17.87
2018-02-16T03:46:53.320Z,20.97
2018-02-16T03:49:19.277Z,23.13
2018-02-16T03:51:45.248Z,28.77
2018-02-16T03:54:11.208Z,23.73
2018-02-16T03:56:37.166Z,20.13
2018-02-16T03:59:03.876Z,23.07
2018-02-16T04:01:29.929Z,39.50
2018-02-16T04:03:55.937Z,28.73
2018-02-16T04:06:21.929Z,36.67
2018-02-16T04:08:48.656Z,26.43
2018-02-16T04:11:15.372Z,18.73
2018-02-16T04:13:41.335Z,19.23
2018-02-16T04:16:07.315Z,25.40
2018-02-16T04:18:33.297Z,20.80
2018-02-16T04:20:59.304Z,23.03
2018-02-16T04:23:25.305Z,22.03
2018-02-16T04:25:52.046Z,19.70
2018-02-16T04:28:18.018Z,20.53
2018-02-16T04:30:44.015Z,20.80
2018-02-16T04:33:09.995Z,24.00
2018-02-16T04:35:35.949Z,39.17
2018-02-16T04:38:01.911Z,23.27
2018-02-16T04:40:27.910Z,16.47
2018-02-16T04:42:54.000Z,18.43
2018-02-16T04:45:19.983Z,28.57
2018-02-16T04:47:45.956Z,16.67
2018-02-16T04:50:11.918Z,16.87
2018-02-16T04:52:38.655Z,32.23
2018-02-16T04:55:06.116Z,34.80
2018-02-16T04:57:32.099Z,20.40
2018-02-16T04:59:58.074Z,31.87
2018-02-16T05:02:24.068Z,23.43
2018-02-16T05:04:50.037Z,23.83
2018-02-16T05:07:15.987Z,24.80
2018-02-16T05:09:42.692Z,28.27
2018-02-16T05:12:08.675Z,25.67
2018-02-16T05:14:34.648Z,24.13
2018-02-16T05:17:01.393Z,21.60
2018-02-16T05:19:28.128Z,20.40
2018-02-16T05:21:54.157Z,25.43
2018-02-16T05:24:20.102Z,25.30
2018-02-16T05:26:46.800Z,21.40
2018-02-16T05:29:12.783Z,28.13
2018-02-16T05:31:38.743Z,25.43
2018-02-16T05:34:04.696Z,24.63
2018-02-16T05:36:30.663Z,30.33
2018-02-16T05:38:56.672Z,22.00
2018-02-16T05:41:22.812Z,20.30
2018-02-16T05:43:48.795Z,25.03
2018-02-16T05:46:14.751Z,31.43
2018-02-16T05:48:41.467Z,22.50
2018-02-16T05:51:07.452Z,26.43
2018-02-16T05:53:34.175Z,24.43
2018-02-16T05:56:00.156Z,23.30
2018-02-16T05:58:26.142Z,21.33
2018-02-16T06:00:52.152Z,25.03
2018-02-16T06:03:18.157Z,21.63
2018-02-16T06:05:44.146Z,29.57
2018-02-16T06:08:10.147Z,31.70
2018-02-16T06:10:36.115Z,25.40
2018-02-16T06:13:02.112Z,22.47
2018-02-16T06:15:28.102Z,28.73
2018-02-16T06:17:54.094Z,24.13
2018-02-16T06:20:20.108Z,25.00
2018-02-16T06:22:46.076Z,27.17
2018-02-16T06:25:12.072Z,23.70
2018-02-16T06:27:38.033Z,23.87
2018-02-16T06:30:04.015Z,25.70
2018-02-16T06:32:29.984Z,17.50
2018-02-16T06:34:56.006Z,29.60
2018-02-16T06:37:22.834Z,31.53
2018-02-16T06:39:48.832Z,27.70
2018-02-16T06:42:14.793Z,18.97
2018-02-16T06:44:40.775Z,24.90
2018-02-16T06:47:06.750Z,26.57
2018-02-16T06:49:32.724Z,25.23
2018-02-16T06:51:59.471Z,22.27
2018-02-16T06:54:26.199Z,22.83
2018-02-16T06:56:52.195Z,22.67
2018-02-16T06:59:18.148Z,19.33
2018-02-16T07:01:44.167Z,22.87
2018-02-16T07:04:10.140Z,18.53
2018-02-16T07:06:36.118Z,24.80
2018-02-16T07:09:02.116Z,26.33
2018-02-16T07:11:28.171Z,16.70
2018-02-16T07:13:54.243Z,32.83
2018-02-16T07:16:20.214Z,27.10
2018-02-16T07:18:46.173Z,19.83
2018-02-16T07:21:12.884Z,19.50
2018-02-16T07:23:38.847Z,16.27
2018-02-16T07:26:04.863Z,15.93
2018-02-16T07:28:30.837Z,12.50
2018-02-16T07:30:56.820Z,22.80
2018-02-16T07:33:22.860Z,17.00
2018-02-16T07:35:48.824Z,15.60
2018-02-16T07:38:14.818Z,12.77
2018-02-16T07:40:40.771Z,13.83
2018-02-16T07:43:06.732Z,14.63
2018-02-16T07:45:32.700Z,15.20
2018-02-16T07:47:59.431Z,12.87
2018-02-16T07:50:25.463Z,10.17
2018-02-16T07:52:51.470Z,12.10
2018-02-16T07:55:17.413Z,13.17
2018-02-16T07:57:43.397Z,10.27
2018-02-16T08:00:10.118Z,9.67
2018-02-16T08:02:36.080Z,15.00
2018-02-16T08:05:02.810Z,12.13
2018-02-16T08:07:28.789Z,13.17
2018-02-16T08:09:54.960Z,14.33
2018-02-16T08:12:20.930Z,12.47
2018-02-16T08:14:47.653Z,13.23
2018-02-16T08:17:13.616Z,14.90
2018-02-16T08:19:39.578Z,13.37
2018-02-16T08:22:05.540Z,13.20
2018-02-16T08:24:31.561Z,11.93
2018-02-16T08:26:57.579Z,15.43
2018-02-16T08:29:24.359Z,14.30
2018-02-16T08:31:50.323Z,14.67
2018-02-16T08:34:16.327Z,19.47
2018-02-16T08:36:42.308Z,15.70
2018-02-16T08:39:08.380Z,17.07
2018-02-16T08:41:35.103Z,19.10
2018-02-16T08:44:01.188Z,16.67
2018-02-16T08:46:27.180Z,18.53
2018-02-16T08:48:53.155Z,16.50
2018-02-16T08:51:19.160Z,13.53
2018-02-16T08:53:45.847Z,15.33
2018-02-16T08:56:11.811Z,17.17
2018-02-16T08:58:37.775Z,19.73
2018-02-16T09:01:03.755Z,15.93
2018-02-16T09:03:29.725Z,17.83
2018-02-16T09:05:55.760Z,14.77
2018-02-16T09:08:21.774Z,14.10
2018-02-16T09:10:47.776Z,16.67
2018-02-16T09:13:14.459Z,16.60
2018-02-16T09:15:40.487Z,16.13
2018-02-16T09:18:06.439Z,14.77
2018-02-16T09:20:32.416Z,13.50
2018-02-16T09:22:59.144Z,13.97
2018-02-16T09:25:25.170Z,11.17
2018-02-16T09:27:51.139Z,12.73
2018-02-16T09:30:17.869Z,16.27
2018-02-16T09:32:43.846Z,14.17
2018-02-16T09:35:09.811Z,11.90
2018-02-16T09:37:35.812Z,15.00
2018-02-16T09:40:02.527Z,13.60
2018-02-16T09:42:28.521Z,14.47
2018-02-16T09:44:54.547Z,11.43
2018-02-16T09:47:20.542Z,11.83
2018-02-16T09:49:46.515Z,13.50
2018-02-16T09:52:12.490Z,10.73
2018-02-16T09:54:38.476Z,12.57
2018-02-16T09:57:05.195Z,15.87
2018-02-16T09:59:31.180Z,13.57
2018-02-16T10:01:57.159Z,11.47
2018-02-16T10:04:23.932Z,17.07
2018-02-16T10:06:49.916Z,18.10
2018-02-16T10:09:15.924Z,23.53
2018-02-16T10:11:42.640Z,17.17
2018-02-16T10:14:08.633Z,18.77
2018-02-16T10:16:34.595Z,22.03
2018-02-16T10:19:00.569Z,19.23
2018-02-16T10:21:27.308Z,15.43
2018-02-16T10:23:53.316Z,15.80
2018-02-16T10:26:19.291Z,17.43
2018-02-16T10:28:45.993Z,20.03
2018-02-16T10:31:11.955Z,20.57
2018-02-16T10:33:37.946Z,16.77
2018-02-16T10:36:03.925Z,16.97
2018-02-16T10:38:29.905Z,19.37
2018-02-16T10:40:56.723Z,19.03
2018-02-16T10:43:23.481Z,17.77
2018-02-16T10:45:49.499Z,21.63
2018-02-16T10:48:15.490Z,17.63
2018-02-16T10:50:41.504Z,20.03
2018-02-16T10:53:07.475Z,23.40
2018-02-16T10:55:33.464Z,18.33
2018-02-16T10:57:59.468Z,27.70
2018-02-16T11:00:31.542Z,18.97
2018-02-16T11:03:03.738Z,15.73
2018-02-16T11:05:35.921Z,22.20
2018-02-16T11:08:01.939Z,19.47
2018-02-16T11:10:27.952Z,18.07
2018-02-16T11:12:53.961Z,18.67
2018-02-16T11:15:20.666Z,16.47
2018-02-16T11:17:46.645Z,16.00
2018-02-16T11:20:12.604Z,14.03
2018-02-16T11:22:38.589Z,15.80
2018-02-16T11:25:04.549Z,13.23
2018-02-16T11:27:30.552Z,16.23
2018-02-16T11:29:56.540Z,18.83
2018-02-16T11:32:23.291Z,24.10
2018-02-16T11:34:50.013Z,19.77
2018-02-16T11:37:15.986Z,14.43
2018-02-16T11:39:41.968Z,14.33
2018-02-16T11:42:07.990Z,19.17
2018-02-16T11:44:40.967Z,18.33
2018-02-16T11:47:06.911Z,17.47
2018-02-16T11:49:32.874Z,20.83
2018-02-16T11:51:58.867Z,16.83
2018-02-16T11:54:24.922Z,16.57
2018-02-16T11:56:50.873Z,17.23
2018-02-16T11:59:16.842Z,16.13
2018-02-16T12:01:42.812Z,18.40
2018-02-16T12:04:08.795Z,19.50
2018-02-16T12:06:34.751Z,18.83
2018-02-16T12:09:00.725Z,18.07
2018-02-16T12:11:26.737Z,21.23
2018-02-16T12:13:53.458Z,20.63
2018-02-16T12:16:19.443Z,12.23
2018-02-16T12:18:45.401Z,14.77
2018-02-16T12:21:11.363Z,20.87
2018-02-16T12:23:38.847Z,15.23
2018-02-16T12:26:04.804Z,22.53
2018-02-16T12:28:31.609Z,16.70
2018-02-16T12:30:57.651Z,14.13
2018-02-16T12:33:23.641Z,16.17
2018-02-16T12:35:49.659Z,13.80
2018-02-16T12:38:15.606Z,16.63
2018-02-16T12:40:41.604Z,17.07
2018-02-16T12:43:07.555Z,19.43
2018-02-16T12:45:34.284Z,20.93
2018-02-16T12:48:01.012Z,24.03
2018-02-16T12:50:27.048Z,19.10
2018-02-16T12:52:53.059Z,20.97
2018-02-16T12:55:19.028Z,20.57
2018-02-16T12:57:45.027Z,24.47
2018-02-16T13:00:11.746Z,20.17
2018-02-16T13:02:37.722Z,23.83
2018-02-16T13:05:03.705Z,16.77
2018-02-16T13:07:30.638Z,12.10
2018-02-16T13:09:56.642Z,9.70
2018-02-16T13:12:23.419Z,11.93
2018-02-16T13:14:49.363Z,5.60
2018-02-16T13:17:15.339Z,9.03
2018-02-16T13:19:41.299Z,7.37
2018-02-16T13:22:08.023Z,7.97
2018-02-16T13:24:33.991Z,14.33
2018-02-16T13:27:00.716Z,4.27
2018-02-16T13:29:26.718Z,5.63
2018-02-16T13:31:52.710Z,5.20
2018-02-16T13:34:19.439Z,3.50
2018-02-16T13:36:45.417Z,7.83
2018-02-16T13:39:11.404Z,4.67
2018-02-16T13:41:37.375Z,5.13
2018-02-16T13:44:03.343Z,5.50
2018-02-16T13:46:29.364Z,9.43
2018-02-16T13:48:55.368Z,4.40
2018-02-16T13:51:22.213Z,2.30
2018-02-16T13:53:48.960Z,4.73
2018-02-16T13:56:14.904Z,7.90
2018-02-16T13:58:40.856Z,4.43
2018-02-16T14:01:07.584Z,5.17
2018-02-16T14:03:33.551Z,2.40
2018-02-16T14:05:59.575Z,6.10
2018-02-16T14:08:25.610Z,2.83
2018-02-16T14:10:52.385Z,4.10
2018-02-16T14:13:18.349Z,4.77
2018-02-16T14:15:44.331Z,4.20
2018-02-16T14:18:11.056Z,7.30
2018-02-16T14:20:37.058Z,9.67
2018-02-16T14:23:03.771Z,7.10
2018-02-16T14:25:30.491Z,8.43
2018-02-16T14:27:56.541Z,4.10
2018-02-16T14:30:22.555Z,3.47
2018-02-16T14:32:48.549Z,5.33
2018-02-16T14:35:14.499Z,5.83
2018-02-16T14:37:40.477Z,7.30
2018-02-16T14:40:07.173Z,6.77
2018-02-16T14:42:33.175Z,13.90
2018-02-16T14:44:59.138Z,3.67
2018-02-16T14:47:25.127Z,10.90
2018-02-16T14:49:51.127Z,5.07
2018-02-16T14:52:17.086Z,4.07
2018-02-16T14:54:43.052Z,9.47
2018-02-16T14:57:09.012Z,5.13
2018-02-16T14:59:35.779Z,4.93
2018-02-16T15:02:01.751Z,4.70
2018-02-16T15:04:27.801Z,8.10
2018-02-16T15:06:53.790Z,17.63
2018-02-16T15:09:19.774Z,5.13
2018-02-16T15:11:45.763Z,4.83
2018-02-16T15:14:11.731Z,5.07
2018-02-16T15:16:37.679Z,2.77
2018-02-16T15:19:03.647Z,4.97
2018-02-16T15:21:30.375Z,1.40
2018-02-16T15:23:56.363Z,4.27
2018-02-16T15:26:22.383Z,4.53
2018-02-16T15:28:48.362Z,8.43
2018-02-16T15:31:14.332Z,7.13
2018-02-16T15:33:41.038Z,11.47
2018-02-16T15:36:07.016Z,9.20
2018-02-16T15:38:33.727Z,4.43
2018-02-16T15:40:59.739Z,3.97
2018-02-16T15:43:25.827Z,9.00
2018-02-16T15:45:51.806Z,5.43
2018-02-16T15:48:17.765Z,10.07
2018-02-16T15:50:43.743Z,6.17
2018-02-16T15:53:09.715Z,6.17
2018-02-16T15:55:35.688Z,10.00
2018-02-16T15:58:01.700Z,4.80
2018-02-16T16:00:27.695Z,6.70
2018-02-16T16:02:54.461Z,8.90
2018-02-16T16:05:20.442Z,12.10
2018-02-16T16:07:46.412Z,11.00
2018-02-16T16:10:12.427Z,7.20
2018-02-16T16:12:38.408Z,13.30
2018-02-16T16:15:04.378Z,7.00
2018-02-16T16:17:30.411Z,12.10
2018-02-16T16:19:56.434Z,7.37
2018-02-16T16:22:22.502Z,12.53
2018-02-16T16:24:49.238Z,9.17
2018-02-16T16:27:15.204Z,9.90
2018-02-16T16:29:41.188Z,13.30
2018-02-16T16:32:07.141Z,16.90
2018-02-16T16:34:33.107Z,9.13
2018-02-16T16:36:59.139Z,13.57
2018-02-16T16:39:25.192Z,12.90
2018-02-16T16:41:51.141Z,6.83
2018-02-16T16:44:17.844Z,4.53
2018-02-16T16:46:43.819Z,5.87
2018-02-16T16:49:09.810Z,7.77
2018-02-16T16:51:35.775Z,5.67
2018-02-16T16:54:01.737Z,6.13
2018-02-16T16:56:28.470Z,7.20
2018-02-16T16:58:55.297Z,11.17
2018-02-16T17:01:21.267Z,5.77
2018-02-16T17:03:47.244Z,6.20
2018-02-16T17:06:13.203Z,6.03
2018-02-16T17:08:39.188Z,4.90
2018-02-16T17:11:05.903Z,7.67
2018-02-16T17:13:31.904Z,5.73
2018-02-16T17:15:57.932Z,6.60
2018-02-16T17:18:23.907Z,7.13
2018-02-16T17:20:49.863Z,5.13
2018-02-16T17:23:15.828Z,9.93
2018-02-16T17:25:41.775Z,8.30
2018-02-16T17:28:07.763Z,6.70
2018-02-16T17:30:33.719Z,10.20
2018-02-16T17:33:00.447Z,8.40
2018-02-16T17:35:26.501Z,12.00
2018-02-16T17:37:52.490Z,13.77
2018-02-16T17:40:18.507Z,14.57
2018-02-16T17:42:44.476Z,9.53
2018-02-16T17:45:10.454Z,13.07
2018-02-16T17:47:37.151Z,4.23
2018-02-16T17:50:03.116Z,7.80
2018-02-16T17:52:29.072Z,4.43
2018-02-16T17:54:55.782Z,6.17
2018-02-16T17:57:21.796Z,11.97
2018-02-16T17:59:47.759Z,5.03
2018-02-16T18:02:13.709Z,6.83
2018-02-16T18:04:39.667Z,1.87
2018-02-16T18:07:06.375Z,9.87
2018-02-16T18:09:32.344Z,8.97
2018-02-16T18:11:59.123Z,5.00
2018-02-16T18:14:25.088Z,8.63
2018-02-16T18:16:51.049Z,2.30
2018-02-16T18:19:17.009Z,5.00
2018-02-16T18:21:43.731Z,15.83
2018-02-16T18:24:09.710Z,6.80
2018-02-16T18:26:35.671Z,7.43
2018-02-16T18:29:01.691Z,5.00
2018-02-16T18:31:27.719Z,7.77
2018-02-16T18:33:53.733Z,7.97
2018-02-16T18:36:20.432Z,6.53
2018-02-16T18:38:46.401Z,8.00
2018-02-16T18:41:12.359Z,9.07
2018-02-16T18:43:39.056Z,7.27
2018-02-16T18:46:05.003Z,11.90
2018-02-16T18:48:31.004Z,6.63
2018-02-16T18:50:56.986Z,10.23
2018-02-16T18:53:23.009Z,6.37
2018-02-16T18:55:48.983Z,8.90
2018-02-16T18:58:15.692Z,2.57
2018-02-16T19:00:41.695Z,6.43
2018-02-16T19:03:07.655Z,6.57
2018-02-16T19:05:33.652Z,5.53
2018-02-16T19:08:00.407Z,6.60
2018-02-16T19:10:26.480Z,6.30
2018-02-16T19:12:52.486Z,6.03
2018-02-16T19:15:18.431Z,5.70
2018-02-16T19:17:44.395Z,10.83
2018-02-16T19:20:10.657Z,8.40
2018-02-16T19:22:37.526Z,6.07
2018-02-16T19:25:04.253Z,2.47
2018-02-16T19:27:30.240Z,7.93
2018-02-16T19:29:57.157Z,6.73
2018-02-16T19:32:24.360Z,10.70
2018-02-16T19:34:50.363Z,8.53
2018-02-16T19:37:16.320Z,11.97
2018-02-16T19:39:43.495Z,14.27
2018-02-16T19:42:09.523Z,23.50
2018-02-16T19:44:36.236Z,11.50
2018-02-16T19:47:02.510Z,16.80
2018-02-16T19:49:28.566Z,8.83
2018-02-16T19:52:01.500Z,10.13
2018-02-16T19:54:27.520Z,6.23
2018-02-16T19:56:53.839Z,3.40
2018-02-16T19:59:19.836Z,10.60
2018-02-16T20:01:45.795Z,8.63
2018-02-16T20:04:13.517Z,3.00
2018-02-16T20:06:39.636Z,2.80
2018-02-16T20:09:05.626Z,5.97
2018-02-16T20:11:31.635Z,2.37
2018-02-16T20:13:57.617Z,2.57
2018-02-16T20:16:24.367Z,5.43
2018-02-16T20:18:50.344Z,2.47
2018-02-16T20:21:16.763Z,10.10
2018-02-16T20:23:42.777Z,4.83
2018-02-16T20:26:09.517Z,5.27
2018-02-16T20:28:35.498Z,10.40
2018-02-16T20:31:01.448Z,8.33
2018-02-16T20:33:27.459Z,7.90
2018-02-16T20:35:54.186Z,8.03
2018-02-16T20:38:20.152Z,4.57
2018-02-16T20:40:46.195Z,6.00
2018-02-16T20:43:13.148Z,8.30
2018-02-16T20:45:39.880Z,9.70
2018-02-16T20:48:06.580Z,9.13
2018-02-16T20:50:32.564Z,5.13
2018-02-16T20:52:58.638Z,11.53
2018-02-16T20:55:24.734Z,11.00
2018-02-16T20:57:50.754Z,9.50
2018-02-16T21:00:16.898Z,7.43
2018-02-16T21:02:50.736Z,9.27
2018-02-16T21:05:17.506Z,5.13
2018-02-16T21:07:44.197Z,4.07
2018-02-16T21:10:10.322Z,7.37
2018-02-16T21:12:37.096Z,6.93
2018-02-16T21:15:03.056Z,4.17
2018-02-16T21:17:30.503Z,4.63
2018-02-16T21:19:57.008Z,8.93
2018-02-16T21:22:23.047Z,7.50
2018-02-16T21:24:49.041Z,3.13
2018-02-16T21:27:16.476Z,5.67
2018-02-16T21:29:42.459Z,3.67
2018-02-16T21:32:09.225Z,17.80
2018-02-16T21:34:35.955Z,9.67
2018-02-16T21:37:01.960Z,5.67
2018-02-16T21:39:27.968Z,10.37
2018-02-16T21:41:54.013Z,11.23
2018-02-16T21:44:19.992Z,9.53
2018-02-16T21:46:45.980Z,3.83
2018-02-16T21:49:11.937Z,9.87
2018-02-16T21:51:37.895Z,6.00
2018-02-16T21:54:03.856Z,4.77
2018-02-16T21:56:30.282Z,8.17
2018-02-16T21:58:56.280Z,9.57
2018-02-16T22:01:22.326Z,6.10
2018-02-16T22:03:48.323Z,8.00
2018-02-16T22:06:15.027Z,6.63
2018-02-16T22:08:40.988Z,10.27
2018-02-16T22:11:07.080Z,11.53
2018-02-16T22:13:33.058Z,24.53
2018-02-16T22:15:59.085Z,9.17
2018-02-16T22:18:25.084Z,7.00
2018-02-16T22:20:51.058Z,6.93
2018-02-16T22:23:17.028Z,9.27
2018-02-16T22:25:44.206Z,6.80
2018-02-16T22:28:10.215Z,8.87
2018-02-16T22:30:36.903Z,9.67
2018-02-16T22:33:02.944Z,4.43
2018-02-16T22:35:29.043Z,10.13
2018-02-16T22:37:55.865Z,4.60
2018-02-16T22:40:22.040Z,11.37
2018-02-16T22:42:48.801Z,7.50
2018-02-16T22:45:15.606Z,6.93
2018-02-16T22:47:41.582Z,11.00
2018-02-16T22:50:08.316Z,6.60
2018-02-16T22:52:34.282Z,5.80
2018-02-16T22:55:01.398Z,12.77
2018-02-16T22:57:31.038Z,5.63
2018-02-16T22:59:57.136Z,9.30
2018-02-16T23:02:23.164Z,11.07
2018-02-16T23:04:49.152Z,14.00
2018-02-16T23:07:15.114Z,16.27
2018-02-16T23:09:41.104Z,12.53
2018-02-16T23:12:07.086Z,3.57
2018-02-16T23:14:33.052Z,8.90
2018-02-16T23:16:59.104Z,12.57
2018-02-16T23:19:25.148Z,11.50
2018-02-16T23:21:51.131Z,9.80
2018-02-16T23:24:17.122Z,10.47
2018-02-16T23:26:43.083Z,15.10
2018-02-16T23:29:09.039Z,11.83
2018-02-16T23:31:35.538Z,12.87
2018-02-16T23:34:01.528Z,9.20
2018-02-16T23:36:27.523Z,6.27
2018-02-16T23:38:54.291Z,9.23
2018-02-16T23:41:21.180Z,9.80
2018-02-16T23:43:47.112Z,11.07
2018-02-16T23:46:13.068Z,10.67
2018-02-16T23:48:39.793Z,6.27
2018-02-16T23:51:05.762Z,5.90
2018-02-16T23:53:32.492Z,17.30
2018-02-16T23:55:58.496Z,9.93
2018-02-16T23:58:24.507Z,10.50
